sensor_id;sensor_type;location;lat;lon;timestamp;pressure;altitude;pressure_sealevel;temperature;humidity
21824;BME280;11074;48.596;9.238;2023-02-28T00:01:14;98890.50;;;2.04;57.38
21824;BME280;11074;48.596;9.238;2023-02-28T00:03:41;98905.56;;;2.10;57.85
21824;BME280;11074;48.596;9.238;2023-02-28T00:06:08;98891.31;;;2.19;57.24
21824;BME280;11074;48.596;9.238;2023-02-28T00:08:35;98893.13;;;2.19;55.88
21824;BME280;11074;48.596;9.238;2023-02-28T00:11:03;98889.59;;;2.26;57.01
21824;BME280;11074;48.596;9.238;2023-02-28T00:13:29;98891.88;;;2.15;56.77
21824;BME280;11074;48.596;9.238;2023-02-28T00:16:06;98894.59;;;2.07;56.56
21824;BME280;11074;48.596;9.238;2023-02-28T00:18:32;98900.69;;;2.07;57.21
21824;BME280;11074;48.596;9.238;2023-02-28T00:20:59;98900.84;;;1.91;57.33
21824;BME280;11074;48.596;9.238;2023-02-28T00:23:26;98895.22;;;1.94;58.01
21824;BME280;11074;48.596;9.238;2023-02-28T00:25:52;98891.41;;;1.74;57.82
21824;BME280;11074;48.596;9.238;2023-02-28T00:28:19;98890.53;;;1.81;57.45
21824;BME280;11074;48.596;9.238;2023-02-28T00:30:45;98893.00;;;1.83;57.65
21824;BME280;11074;48.596;9.238;2023-02-28T00:33:10;98890.66;;;1.88;57.16
21824;BME280;11074;48.596;9.238;2023-02-28T00:35:36;98894.34;;;1.79;57.65
21824;BME280;11074;48.596;9.238;2023-02-28T00:38:02;98892.72;;;1.78;58.08
21824;BME280;11074;48.596;9.238;2023-02-28T00:40:29;98890.53;;;1.81;58.43
21824;BME280;11074;48.596;9.238;2023-02-28T00:42:55;98887.44;;;1.78;57.84
21824;BME280;11074;48.596;9.238;2023-02-28T00:45:21;98891.00;;;1.85;58.44
21824;BME280;11074;48.596;9.238;2023-02-28T00:47:47;98894.63;;;1.84;58.27
21824;BME280;11074;48.596;9.238;2023-02-28T00:50:18;98888.16;;;1.87;57.74
21824;BME280;11074;48.596;9.238;2023-02-28T00:52:46;98892.25;;;1.89;58.42
21824;BME280;11074;48.596;9.238;2023-02-28T00:55:12;98889.81;;;1.88;58.11
21824;BME280;11074;48.596;9.238;2023-02-28T00:57:37;98881.44;;;1.84;57.88
21824;BME280;11074;48.596;9.238;2023-02-28T01:00:04;98878.25;;;1.74;57.99
21824;BME280;11074;48.596;9.238;2023-02-28T01:02:31;98880.19;;;1.80;58.08
21824;BME280;11074;48.596;9.238;2023-02-28T01:04:56;98879.63;;;1.84;58.56
21824;BME280;11074;48.596;9.238;2023-02-28T01:07:23;98883.91;;;1.86;59.20
21824;BME280;11074;48.596;9.238;2023-02-28T01:09:48;98882.88;;;1.72;58.56
21824;BME280;11074;48.596;9.238;2023-02-28T01:12:14;98874.94;;;1.57;58.37
21824;BME280;11074;48.596;9.238;2023-02-28T01:14:40;98878.44;;;1.50;58.44
21824;BME280;11074;48.596;9.238;2023-02-28T01:17:07;98878.97;;;1.45;59.92
21824;BME280;11074;48.596;9.238;2023-02-28T01:19:32;98882.88;;;1.49;59.39
21824;BME280;11074;48.596;9.238;2023-02-28T01:22:03;98884.06;;;1.47;59.22
21824;BME280;11074;48.596;9.238;2023-02-28T01:24:28;98891.31;;;1.45;59.34
21824;BME280;11074;48.596;9.238;2023-02-28T01:26:54;98882.94;;;1.41;59.77
21824;BME280;11074;48.596;9.238;2023-02-28T01:29:20;98883.97;;;1.40;59.47
21824;BME280;11074;48.596;9.238;2023-02-28T01:31:45;98882.44;;;1.46;60.19
21824;BME280;11074;48.596;9.238;2023-02-28T01:34:12;98884.34;;;1.52;59.86
21824;BME280;11074;48.596;9.238;2023-02-28T01:36:38;98882.72;;;1.51;59.71
21824;BME280;11074;48.596;9.238;2023-02-28T01:39:04;98881.91;;;1.50;59.46
21824;BME280;11074;48.596;9.238;2023-02-28T01:41:32;98870.53;;;1.50;60.17
21824;BME280;11074;48.596;9.238;2023-02-28T01:44:06;98869.63;;;1.43;60.59
21824;BME280;11074;48.596;9.238;2023-02-28T01:46:35;98871.66;;;1.55;59.92
21824;BME280;11074;48.596;9.238;2023-02-28T01:49:11;98867.69;;;1.59;59.99
21824;BME280;11074;48.596;9.238;2023-02-28T01:51:45;98868.78;;;1.65;59.83
21824;BME280;11074;48.596;9.238;2023-02-28T01:54:24;98862.13;;;1.54;59.96
21824;BME280;11074;48.596;9.238;2023-02-28T01:57:01;98864.94;;;1.53;59.85
21824;BME280;11074;48.596;9.238;2023-02-28T01:59:37;98867.84;;;1.58;60.46
21824;BME280;11074;48.596;9.238;2023-02-28T02:02:06;98870.31;;;1.59;60.64
21824;BME280;11074;48.596;9.238;2023-02-28T02:04:46;98864.78;;;1.54;60.71
21824;BME280;11074;48.596;9.238;2023-02-28T02:07:16;98856.75;;;1.48;60.64
21824;BME280;11074;48.596;9.238;2023-02-28T02:09:42;98858.38;;;1.49;61.06
21824;BME280;11074;48.596;9.238;2023-02-28T02:12:40;98859.72;;;1.45;61.49
21824;BME280;11074;48.596;9.238;2023-02-28T02:15:17;98852.44;;;1.32;61.03
21824;BME280;11074;48.596;9.238;2023-02-28T02:17:52;98846.28;;;1.17;61.25
21824;BME280;11074;48.596;9.238;2023-02-28T02:21:02;98839.25;;;1.32;61.69
21824;BME280;11074;48.596;9.238;2023-02-28T02:26:55;98832.63;;;1.36;61.81
21824;BME280;11074;48.596;9.238;2023-02-28T02:29:54;98828.59;;;1.48;61.55
21824;BME280;11074;48.596;9.238;2023-02-28T02:32:31;98834.81;;;1.33;61.67
21824;BME280;11074;48.596;9.238;2023-02-28T02:40:46;98825.63;;;1.66;61.70
21824;BME280;11074;48.596;9.238;2023-02-28T02:43:32;98826.88;;;1.55;61.11
21824;BME280;11074;48.596;9.238;2023-02-28T02:46:10;98829.56;;;1.47;61.49
21824;BME280;11074;48.596;9.238;2023-02-28T02:48:42;98829.69;;;1.54;61.78
21824;BME280;11074;48.596;9.238;2023-02-28T02:51:19;98829.50;;;1.55;61.22
21824;BME280;11074;48.596;9.238;2023-02-28T02:54:14;98831.56;;;1.45;62.11
21824;BME280;11074;48.596;9.238;2023-02-28T02:56:45;98834.22;;;1.45;62.28
21824;BME280;11074;48.596;9.238;2023-02-28T02:59:16;98839.28;;;1.47;62.25
21824;BME280;11074;48.596;9.238;2023-02-28T03:01:50;98837.75;;;1.52;62.33
21824;BME280;11074;48.596;9.238;2023-02-28T03:04:22;98832.06;;;1.49;62.07
21824;BME280;11074;48.596;9.238;2023-02-28T03:06:51;98841.41;;;1.51;62.03
21824;BME280;11074;48.596;9.238;2023-02-28T03:09:25;98842.41;;;1.50;62.28
21824;BME280;11074;48.596;9.238;2023-02-28T03:11:54;98846.41;;;1.61;61.97
21824;BME280;11074;48.596;9.238;2023-02-28T03:14:46;98851.16;;;1.65;61.98
21824;BME280;11074;48.596;9.238;2023-02-28T03:20:53;98852.38;;;1.77;61.95
21824;BME280;11074;48.596;9.238;2023-02-28T03:23:42;98832.91;;;1.78;62.51
21824;BME280;11074;48.596;9.238;2023-02-28T03:26:20;98844.47;;;1.77;63.04
21824;BME280;11074;48.596;9.238;2023-02-28T03:29:34;98840.09;;;1.70;62.63
21824;BME280;11074;48.596;9.238;2023-02-28T03:32:29;98840.72;;;1.72;62.49
21824;BME280;11074;48.596;9.238;2023-02-28T03:35:16;98836.72;;;1.76;62.46
21824;BME280;11074;48.596;9.238;2023-02-28T03:37:53;98840.66;;;1.80;62.80
21824;BME280;11074;48.596;9.238;2023-02-28T03:40:23;98840.59;;;1.65;62.65
21824;BME280;11074;48.596;9.238;2023-02-28T03:42:59;98831.09;;;1.64;63.14
21824;BME280;11074;48.596;9.238;2023-02-28T03:45:32;98834.00;;;1.69;62.34
21824;BME280;11074;48.596;9.238;2023-02-28T03:48:25;98832.88;;;1.64;63.00
21824;BME280;11074;48.596;9.238;2023-02-28T03:50:57;98838.78;;;1.66;63.46
21824;BME280;11074;48.596;9.238;2023-02-28T03:53:38;98841.63;;;1.64;63.87
21824;BME280;11074;48.596;9.238;2023-02-28T03:56:20;98838.72;;;1.74;64.19
21824;BME280;11074;48.596;9.238;2023-02-28T04:01:48;98833.16;;;1.69;64.18
21824;BME280;11074;48.596;9.238;2023-02-28T04:04:16;98838.72;;;1.74;64.09
21824;BME280;11074;48.596;9.238;2023-02-28T04:06:43;98832.09;;;1.78;64.10
21824;BME280;11074;48.596;9.238;2023-02-28T04:09:13;98833.56;;;1.80;63.95
21824;BME280;11074;48.596;9.238;2023-02-28T04:11:42;98838.09;;;1.87;63.75
21824;BME280;11074;48.596;9.238;2023-02-28T04:14:10;98841.00;;;1.77;63.87
21824;BME280;11074;48.596;9.238;2023-02-28T04:16:40;98839.81;;;1.79;64.09
21824;BME280;11074;48.596;9.238;2023-02-28T04:19:09;98833.63;;;1.72;64.22
21824;BME280;11074;48.596;9.238;2023-02-28T04:21:39;98834.81;;;1.70;63.99
21824;BME280;11074;48.596;9.238;2023-02-28T04:24:07;98842.25;;;1.66;64.10
21824;BME280;11074;48.596;9.238;2023-02-28T04:26:36;98851.63;;;1.69;64.30
21824;BME280;11074;48.596;9.238;2023-02-28T04:29:04;98844.13;;;1.58;64.06
21824;BME280;11074;48.596;9.238;2023-02-28T04:31:30;98839.28;;;1.47;64.46
21824;BME280;11074;48.596;9.238;2023-02-28T04:33:57;98843.63;;;1.40;64.73
21824;BME280;11074;48.596;9.238;2023-02-28T04:36:23;98837.44;;;1.33;64.88
21824;BME280;11074;48.596;9.238;2023-02-28T04:38:49;98833.81;;;1.34;65.49
21824;BME280;11074;48.596;9.238;2023-02-28T04:41:16;98833.28;;;1.38;65.73
21824;BME280;11074;48.596;9.238;2023-02-28T04:43:42;98833.03;;;1.48;65.62
21824;BME280;11074;48.596;9.238;2023-02-28T04:46:08;98838.31;;;1.48;65.45
21824;BME280;11074;48.596;9.238;2023-02-28T04:48:37;98836.22;;;1.43;65.30
21824;BME280;11074;48.596;9.238;2023-02-28T04:51:13;98836.03;;;1.45;64.74
21824;BME280;11074;48.596;9.238;2023-02-28T04:53:41;98840.50;;;1.59;65.22
21824;BME280;11074;48.596;9.238;2023-02-28T04:56:11;98834.34;;;1.66;64.88
21824;BME280;11074;48.596;9.238;2023-02-28T04:58:37;98843.59;;;1.62;65.27
21824;BME280;11074;48.596;9.238;2023-02-28T05:01:06;98830.25;;;1.64;65.50
21824;BME280;11074;48.596;9.238;2023-02-28T05:03:39;98838.88;;;1.58;65.01
21824;BME280;11074;48.596;9.238;2023-02-28T05:06:07;98836.22;;;1.43;65.28
21824;BME280;11074;48.596;9.238;2023-02-28T05:08:33;98839.47;;;1.45;65.19
21824;BME280;11074;48.596;9.238;2023-02-28T05:10:59;98826.59;;;1.50;65.54
21824;BME280;11074;48.596;9.238;2023-02-28T05:13:31;98832.34;;;1.54;65.27
21824;BME280;11074;48.596;9.238;2023-02-28T05:15:57;98833.16;;;1.54;65.57
21824;BME280;11074;48.596;9.238;2023-02-28T05:18:23;98845.44;;;1.62;65.09
21824;BME280;11074;48.596;9.238;2023-02-28T05:20:48;98853.06;;;1.57;65.24
21824;BME280;11074;48.596;9.238;2023-02-28T05:23:15;98853.34;;;1.62;65.43
21824;BME280;11074;48.596;9.238;2023-02-28T05:25:43;98851.69;;;1.61;65.24
21824;BME280;11074;48.596;9.238;2023-02-28T05:28:08;98851.22;;;1.57;65.26
21824;BME280;11074;48.596;9.238;2023-02-28T05:30:34;98853.16;;;1.63;65.64
21824;BME280;11074;48.596;9.238;2023-02-28T05:33:00;98856.59;;;1.64;65.72
21824;BME280;11074;48.596;9.238;2023-02-28T05:35:26;98859.16;;;1.72;65.36
21824;BME280;11074;48.596;9.238;2023-02-28T05:37:52;98856.19;;;1.75;65.29
21824;BME280;11074;48.596;9.238;2023-02-28T05:40:18;98858.13;;;1.58;65.22
21824;BME280;11074;48.596;9.238;2023-02-28T05:42:46;98864.03;;;1.60;65.12
21824;BME280;11074;48.596;9.238;2023-02-28T05:45:12;98858.13;;;1.58;65.08
21824;BME280;11074;48.596;9.238;2023-02-28T05:47:38;98851.81;;;1.67;65.86
21824;BME280;11074;48.596;9.238;2023-02-28T05:50:05;98856.69;;;1.70;64.93
21824;BME280;11074;48.596;9.238;2023-02-28T05:52:32;98849.44;;;1.72;65.70
21824;BME280;11074;48.596;9.238;2023-02-28T05:54:58;98850.34;;;1.79;65.05
21824;BME280;11074;48.596;9.238;2023-02-28T05:57:24;98846.06;;;1.78;65.03
21824;BME280;11074;48.596;9.238;2023-02-28T05:59:50;98859.78;;;1.74;64.97
21824;BME280;11074;48.596;9.238;2023-02-28T06:02:17;98860.53;;;1.82;65.83
21824;BME280;11074;48.596;9.238;2023-02-28T06:04:44;98862.91;;;1.77;65.53
21824;BME280;11074;48.596;9.238;2023-02-28T06:07:10;98857.00;;;1.75;64.64
21824;BME280;11074;48.596;9.238;2023-02-28T06:09:37;98855.22;;;1.68;65.02
21824;BME280;11074;48.596;9.238;2023-02-28T06:12:05;98859.78;;;1.59;65.66
21824;BME280;11074;48.596;9.238;2023-02-28T06:14:33;98857.22;;;1.51;65.04
21824;BME280;11074;48.596;9.238;2023-02-28T06:17:00;98860.88;;;1.65;65.64
21824;BME280;11074;48.596;9.238;2023-02-28T06:19:27;98865.50;;;1.63;65.14
21824;BME280;11074;48.596;9.238;2023-02-28T06:21:54;98867.44;;;1.69;65.33
21824;BME280;11074;48.596;9.238;2023-02-28T06:24:23;98875.59;;;1.74;64.86
21824;BME280;11074;48.596;9.238;2023-02-28T06:26:50;98876.53;;;1.81;64.66
21824;BME280;11074;48.596;9.238;2023-02-28T06:29:16;98878.09;;;1.75;64.49
21824;BME280;11074;48.596;9.238;2023-02-28T06:31:47;98889.25;;;1.77;64.51
21824;BME280;11074;48.596;9.238;2023-02-28T06:34:14;98887.72;;;1.83;64.89
21824;BME280;11074;48.596;9.238;2023-02-28T06:36:41;98895.34;;;1.78;63.92
21824;BME280;11074;48.596;9.238;2023-02-28T06:39:07;98889.97;;;1.71;64.00
21824;BME280;11074;48.596;9.238;2023-02-28T06:41:34;98889.25;;;1.77;64.69
21824;BME280;11074;48.596;9.238;2023-02-28T06:44:05;98888.16;;;1.72;64.40
21824;BME280;11074;48.596;9.238;2023-02-28T06:46:31;98890.59;;;1.73;64.00
21824;BME280;11074;48.596;9.238;2023-02-28T06:48:57;98885.69;;;1.70;65.20
21824;BME280;11074;48.596;9.238;2023-02-28T06:51:23;98884.69;;;1.71;64.27
21824;BME280;11074;48.596;9.238;2023-02-28T06:53:50;98883.50;;;1.74;64.90
21824;BME280;11074;48.596;9.238;2023-02-28T06:56:18;98889.41;;;1.76;64.00
21824;BME280;11074;48.596;9.238;2023-02-28T06:58:49;98894.47;;;1.86;64.96
21824;BME280;11074;48.596;9.238;2023-02-28T07:01:16;98905.81;;;1.86;64.63
21824;BME280;11074;48.596;9.238;2023-02-28T07:03:42;98903.53;;;1.83;64.07
21824;BME280;11074;48.596;9.238;2023-02-28T07:06:08;98899.09;;;1.83;64.54
21824;BME280;11074;48.596;9.238;2023-02-28T07:08:34;98903.97;;;1.87;64.66
21824;BME280;11074;48.596;9.238;2023-02-28T07:11:02;98912.97;;;1.77;63.74
21824;BME280;11074;48.596;9.238;2023-02-28T07:13:28;98911.97;;;1.78;64.59
21824;BME280;11074;48.596;9.238;2023-02-28T07:16:03;98907.88;;;1.76;64.49
21824;BME280;11074;48.596;9.238;2023-02-28T07:18:30;98899.09;;;1.83;64.66
21824;BME280;11074;48.596;9.238;2023-02-28T07:20:56;98906.34;;;1.81;64.92
21824;BME280;11074;48.596;9.238;2023-02-28T07:23:23;98905.44;;;1.89;64.79
21824;BME280;11074;48.596;9.238;2023-02-28T07:25:50;98909.56;;;1.92;64.00
21824;BME280;11074;48.596;9.238;2023-02-28T07:28:17;98917.53;;;1.83;63.95
21824;BME280;11074;48.596;9.238;2023-02-28T07:30:43;98914.44;;;1.80;63.87
21824;BME280;11074;48.596;9.238;2023-02-28T07:33:10;98920.00;;;1.85;64.81
21824;BME280;11074;48.596;9.238;2023-02-28T07:35:35;98915.97;;;1.74;64.15
21824;BME280;11074;48.596;9.238;2023-02-28T07:38:01;98916.53;;;1.84;64.97
21824;BME280;11074;48.596;9.238;2023-02-28T07:40:28;98921.81;;;1.84;64.46
21824;BME280;11074;48.596;9.238;2023-02-28T07:42:54;98916.00;;;1.89;64.05
21824;BME280;11074;48.596;9.238;2023-02-28T07:45:19;98917.47;;;1.92;64.02
21824;BME280;11074;48.596;9.238;2023-02-28T07:47:46;98922.97;;;2.05;64.63
21824;BME280;11074;48.596;9.238;2023-02-28T07:50:15;98923.13;;;2.03;64.44
21824;BME280;11074;48.596;9.238;2023-02-28T07:52:42;98913.47;;;1.96;64.23
21824;BME280;11074;48.596;9.238;2023-02-28T07:55:09;98906.19;;;1.98;64.17
21824;BME280;11074;48.596;9.238;2023-02-28T07:57:35;98911.75;;;2.03;63.80
21824;BME280;11074;48.596;9.238;2023-02-28T08:00:06;98920.47;;;2.03;64.32
21824;BME280;11074;48.596;9.238;2023-02-28T08:02:32;98914.84;;;2.06;63.00
21824;BME280;11074;48.596;9.238;2023-02-28T08:04:57;98928.22;;;2.05;63.81
21824;BME280;11074;48.596;9.238;2023-02-28T08:07:23;98920.88;;;2.15;63.51
21824;BME280;11074;48.596;9.238;2023-02-28T08:09:49;98935.31;;;2.19;63.48
21824;BME280;11074;48.596;9.238;2023-02-28T08:12:14;98932.97;;;2.24;63.67
21824;BME280;11074;48.596;9.238;2023-02-28T08:14:40;98937.88;;;2.27;63.83
21824;BME280;11074;48.596;9.238;2023-02-28T08:17:06;98937.72;;;2.28;63.17
21824;BME280;11074;48.596;9.238;2023-02-28T08:19:32;98942.78;;;2.15;62.31
21824;BME280;11074;48.596;9.238;2023-02-28T08:21:58;98947.19;;;2.00;63.34
21824;BME280;11074;48.596;9.238;2023-02-28T08:24:24;98938.19;;;1.95;62.88
21824;BME280;11074;48.596;9.238;2023-02-28T08:26:50;98950.38;;;1.96;63.68
21824;BME280;11074;48.596;9.238;2023-02-28T08:29:16;98931.66;;;2.05;63.52
21824;BME280;11074;48.596;9.238;2023-02-28T08:31:42;98929.13;;;2.12;63.75
21824;BME280;11074;48.596;9.238;2023-02-28T08:34:11;98935.53;;;2.17;63.24
21824;BME280;11074;48.596;9.238;2023-02-28T08:36:37;98930.06;;;2.19;62.91
21824;BME280;11074;48.596;9.238;2023-02-28T08:39:04;98935.09;;;2.28;62.16
21824;BME280;11074;48.596;9.238;2023-02-28T08:41:30;98939.34;;;2.29;62.67
21824;BME280;11074;48.596;9.238;2023-02-28T08:43:56;98937.88;;;2.27;62.30
21824;BME280;11074;48.596;9.238;2023-02-28T08:46:23;98937.28;;;2.39;62.48
21824;BME280;11074;48.596;9.238;2023-02-28T08:48:53;98935.72;;;2.45;61.65
21824;BME280;11074;48.596;9.238;2023-02-28T08:51:20;98941.00;;;2.45;62.26
21824;BME280;11074;48.596;9.238;2023-02-28T08:53:59;98941.56;;;2.55;61.34
21824;BME280;11074;48.596;9.238;2023-02-28T08:56:26;98941.56;;;2.55;61.42
21824;BME280;11074;48.596;9.238;2023-02-28T08:58:54;98946.19;;;2.53;61.10
21824;BME280;11074;48.596;9.238;2023-02-28T09:01:25;98946.75;;;2.63;61.97
21824;BME280;11074;48.596;9.238;2023-02-28T09:03:53;98945.28;;;2.61;60.65
21824;BME280;11074;48.596;9.238;2023-02-28T09:06:22;98942.94;;;2.66;61.69
21824;BME280;11074;48.596;9.238;2023-02-28T09:08:48;98945.00;;;2.70;61.01
21824;BME280;11074;48.596;9.238;2023-02-28T09:11:15;98948.38;;;2.79;61.05
21824;BME280;11074;48.596;9.238;2023-02-28T09:13:42;98943.09;;;2.79;60.70
21824;BME280;11074;48.596;9.238;2023-02-28T09:16:13;98947.38;;;2.65;60.31
21824;BME280;11074;48.596;9.238;2023-02-28T09:18:39;98954.75;;;2.70;60.56
21824;BME280;11074;48.596;9.238;2023-02-28T09:21:09;98959.75;;;2.79;60.34
21824;BME280;11074;48.596;9.238;2023-02-28T09:23:35;98955.75;;;2.54;60.76
21824;BME280;11074;48.596;9.238;2023-02-28T09:26:04;98959.75;;;2.65;60.67
21824;BME280;11074;48.596;9.238;2023-02-28T09:28:30;98958.66;;;2.74;60.31
21824;BME280;11074;48.596;9.238;2023-02-28T09:30:56;98967.69;;;2.79;60.58
21824;BME280;11074;48.596;9.238;2023-02-28T09:33:24;98964.28;;;2.85;60.21
21824;BME280;11074;48.596;9.238;2023-02-28T09:35:58;98967.03;;;2.92;59.92
21824;BME280;11074;48.596;9.238;2023-02-28T09:38:24;98975.41;;;2.81;59.81
21824;BME280;11074;48.596;9.238;2023-02-28T09:40:55;98964.66;;;2.97;59.64
21824;BME280;11074;48.596;9.238;2023-02-28T09:43:30;98971.69;;;2.90;60.19
21824;BME280;11074;48.596;9.238;2023-02-28T09:46:33;98963.09;;;3.02;59.48
21824;BME280;11074;48.596;9.238;2023-02-28T09:49:07;98973.38;;;3.12;59.92
21824;BME280;11074;48.596;9.238;2023-02-28T09:54:22;98972.44;;;3.20;58.80
21824;BME280;11074;48.596;9.238;2023-02-28T10:05:12;98983.75;;;3.14;58.84
21824;BME280;11074;48.596;9.238;2023-02-28T10:08:16;98984.03;;;3.19;59.33
21824;BME280;11074;48.596;9.238;2023-02-28T10:10:49;98990.66;;;3.29;58.77
21824;BME280;11074;48.596;9.238;2023-02-28T10:16:40;98990.81;;;3.42;58.54
21824;BME280;11074;48.596;9.238;2023-02-28T10:19:28;98989.97;;;3.99;76.83
21824;BME280;11074;48.596;9.238;2023-02-28T10:22:18;98986.34;;;4.27;81.53
21824;BME280;11074;48.596;9.238;2023-02-28T10:24:52;98986.50;;;3.98;74.91
21824;BME280;11074;48.596;9.238;2023-02-28T10:27:23;98984.84;;;4.74;69.97
21824;BME280;11074;48.596;9.238;2023-02-28T10:29:52;98985.84;;;5.68;75.06
21824;BME280;11074;48.596;9.238;2023-02-28T10:32:23;98978.47;;;5.57;56.43
21824;BME280;11074;48.596;9.238;2023-02-28T10:35:24;98979.16;;;5.18;64.59
21824;BME280;11074;48.596;9.238;2023-02-28T10:37:55;98982.44;;;5.20;59.37
21824;BME280;11074;48.596;9.238;2023-02-28T10:43:11;98982.91;;;4.89;55.07
21824;BME280;11074;48.596;9.238;2023-02-28T10:45:57;98984.97;;;4.66;56.29
21824;BME280;11074;48.596;9.238;2023-02-28T10:48:39;98985.78;;;4.60;54.66
21824;BME280;11074;48.596;9.238;2023-02-28T10:51:10;98987.44;;;4.67;55.85
21824;BME280;11074;48.596;9.238;2023-02-28T10:53:48;98981.91;;;4.62;55.52
21824;BME280;11074;48.596;9.238;2023-02-28T10:56:20;98982.31;;;4.59;55.34
21824;BME280;11074;48.596;9.238;2023-02-28T11:01:41;98986.47;;;4.47;55.50
21824;BME280;11074;48.596;9.238;2023-02-28T11:04:36;98989.28;;;4.39;55.15
21824;BME280;11074;48.596;9.238;2023-02-28T11:07:17;98978.97;;;4.51;54.87
21824;BME280;11074;48.596;9.238;2023-02-28T11:09:48;98983.50;;;4.57;55.56
21824;BME280;11074;48.596;9.238;2023-02-28T11:12:41;98986.06;;;4.44;54.92
21824;BME280;11074;48.596;9.238;2023-02-28T11:15:30;98994.09;;;4.57;55.13
21824;BME280;11074;48.596;9.238;2023-02-28T11:20:37;98994.56;;;4.67;54.75
21824;BME280;11074;48.596;9.238;2023-02-28T11:23:04;98997.38;;;4.59;54.40
21824;BME280;11074;48.596;9.238;2023-02-28T11:25:35;98993.25;;;4.50;54.95
21824;BME280;11074;48.596;9.238;2023-02-28T11:31:16;98994.34;;;4.62;54.93
21824;BME280;11074;48.596;9.238;2023-02-28T11:33:54;98988.19;;;4.55;54.95
21824;BME280;11074;48.596;9.238;2023-02-28T11:36:30;98993.47;;;4.55;54.93
21824;BME280;11074;48.596;9.238;2023-02-28T11:39:10;98990.94;;;4.68;54.79
21824;BME280;11074;48.596;9.238;2023-02-28T11:44:59;98974.97;;;4.96;53.54
21824;BME280;11074;48.596;9.238;2023-02-28T11:47:47;98962.94;;;4.93;54.00
21824;BME280;11074;48.596;9.238;2023-02-28T11:56:41;98957.09;;;5.71;52.91
21824;BME280;11074;48.596;9.238;2023-02-28T12:00:10;98953.69;;;5.90;50.87
21824;BME280;11074;48.596;9.238;2023-02-28T12:03:17;98959.63;;;6.05;51.35
21824;BME280;11074;48.596;9.238;2023-02-28T12:05:57;98959.22;;;6.15;50.31
21824;BME280;11074;48.596;9.238;2023-02-28T12:08:43;98949.81;;;6.13;50.69
21824;BME280;11074;48.596;9.238;2023-02-28T12:11:19;98958.41;;;6.08;49.73
21824;BME280;11074;48.596;9.238;2023-02-28T12:14:32;98942.03;;;5.91;50.85
21824;BME280;11074;48.596;9.238;2023-02-28T12:17:34;98939.41;;;5.98;51.18
21824;BME280;11074;48.596;9.238;2023-02-28T12:20:23;98935.34;;;6.08;51.37
21824;BME280;11074;48.596;9.238;2023-02-28T12:26:31;98935.75;;;6.12;51.75
21824;BME280;11074;48.596;9.238;2023-02-28T12:29:17;98936.94;;;6.29;51.73
21824;BME280;11074;48.596;9.238;2023-02-28T12:32:06;98933.47;;;6.48;51.06
21824;BME280;11074;48.596;9.238;2023-02-28T12:34:45;98927.34;;;6.54;50.70
21824;BME280;11074;48.596;9.238;2023-02-28T12:37:29;98924.44;;;6.69;50.05
21824;BME280;11074;48.596;9.238;2023-02-28T12:40:05;98922.97;;;6.86;50.30
21824;BME280;11074;48.596;9.238;2023-02-28T12:42:49;98913.06;;;7.06;49.99
21824;BME280;11074;48.596;9.238;2023-02-28T12:45:23;98915.13;;;7.04;49.75
21824;BME280;11074;48.596;9.238;2023-02-28T12:48:00;98907.91;;;7.11;49.85
21824;BME280;11074;48.596;9.238;2023-02-28T12:50:29;98910.84;;;7.41;49.62
21824;BME280;11074;48.596;9.238;2023-02-28T12:53:01;98906.50;;;7.47;48.45
21824;BME280;11074;48.596;9.238;2023-02-28T12:55:42;98903.94;;;7.65;48.25
21824;BME280;11074;48.596;9.238;2023-02-28T12:58:41;98903.41;;;7.81;47.74
21824;BME280;11074;48.596;9.238;2023-02-28T13:04:52;98902.53;;;8.12;47.71
21824;BME280;11074;48.596;9.238;2023-02-28T13:07:52;98890.47;;;8.09;46.68
21824;BME280;11074;48.596;9.238;2023-02-28T13:10:24;98893.53;;;7.88;47.51
21824;BME280;11074;48.596;9.238;2023-02-28T13:12:53;98891.50;;;7.59;47.91
21824;BME280;11074;48.596;9.238;2023-02-28T13:15:28;98894.63;;;7.49;48.02
21824;BME280;11074;48.596;9.238;2023-02-28T13:17:59;98895.66;;;7.79;48.16
21824;BME280;11074;48.596;9.238;2023-02-28T13:20:36;98899.19;;;7.98;46.59
21824;BME280;11074;48.596;9.238;2023-02-28T13:23:03;98891.25;;;8.16;46.57
21824;BME280;11074;48.596;9.238;2023-02-28T13:28:01;98878.44;;;8.31;46.51
21824;BME280;11074;48.596;9.238;2023-02-28T13:33:35;98875.78;;;8.49;46.34
21824;BME280;11074;48.596;9.238;2023-02-28T13:44:15;98869.88;;;9.02;44.83
21824;BME280;11074;48.596;9.238;2023-02-28T13:49:27;98869.78;;;9.08;45.14
21824;BME280;11074;48.596;9.238;2023-02-28T13:55:03;98874.38;;;9.01;44.52
21824;BME280;11074;48.596;9.238;2023-02-28T14:06:37;98863.97;;;9.71;43.68
21824;BME280;11074;48.596;9.238;2023-02-28T14:09:46;98861.53;;;9.93;43.64
21824;BME280;11074;48.596;9.238;2023-02-28T14:15:47;98858.72;;;10.29;42.39
21824;BME280;11074;48.596;9.238;2023-02-28T14:18:30;98857.78;;;10.86;41.32
21824;BME280;11074;48.596;9.238;2023-02-28T14:21:21;98852.00;;;11.46;40.50
21824;BME280;11074;48.596;9.238;2023-02-28T14:27:08;98852.22;;;12.23;38.40
21824;BME280;11074;48.596;9.238;2023-02-28T14:30:36;98853.03;;;12.83;37.08
21824;BME280;11074;48.596;9.238;2023-02-28T14:33:01;98849.47;;;12.99;36.31
21824;BME280;11074;48.596;9.238;2023-02-28T14:39:25;98847.22;;;13.34;35.36
21824;BME280;11074;48.596;9.238;2023-02-28T14:41:51;98851.78;;;13.34;35.75
21824;BME280;11074;48.596;9.238;2023-02-28T14:44:25;98847.25;;;12.91;35.91
21824;BME280;11074;48.596;9.238;2023-02-28T14:47:01;98852.44;;;12.38;36.48
21824;BME280;11074;48.596;9.238;2023-02-28T14:49:36;98866.84;;;12.32;37.52
21824;BME280;11074;48.596;9.238;2023-02-28T14:54:37;98856.75;;;12.39;37.04
21824;BME280;11074;48.596;9.238;2023-02-28T14:57:04;98857.69;;;12.49;36.99
21824;BME280;11074;48.596;9.238;2023-02-28T14:59:34;98855.28;;;12.69;36.44
21824;BME280;11074;48.596;9.238;2023-02-28T15:02:23;98858.28;;;12.95;35.47
21824;BME280;11074;48.596;9.238;2023-02-28T15:05:02;98852.63;;;13.13;34.78
21824;BME280;11074;48.596;9.238;2023-02-28T15:07:36;98856.00;;;13.25;35.41
21824;BME280;11074;48.596;9.238;2023-02-28T15:10:20;98858.38;;;13.48;35.11
21824;BME280;11074;48.596;9.238;2023-02-28T15:12:54;98855.78;;;13.58;33.76
21824;BME280;11074;48.596;9.238;2023-02-28T15:15:25;98850.06;;;13.50;34.95
21824;BME280;11074;48.596;9.238;2023-02-28T15:17:56;98860.75;;;13.45;35.03